ΕΜΥ, Εθνική Μετεωρολογική Υπηρεσία - Δελτία Καιρού, Προγνώσεις

ΑΕΡΟΝΑΥΤΙΛΙΑ

GREEK AIRPORTS CODES

LGKY 211700Z 35014KT CAVOK 26/20 Q1010 RMK HAND WIND ANEMOMETER OBSERVATION=

EUROPEAN AIRPORTS CODES

EBBR 212250Z VRB02KT CAVOK 16/14 Q1024 NOSIG=